Time;durP1;ratioP1;P1;durP2;ratioP2;P2;SDS_P1;SDS_P2;PMS_P1;PMS_P2;Temp;Humidity;BMP_temperature;BMP_pressure;BME280_temperature;BME280_humidity;BME280_pressure;Samples;Min_cycle;Max_cycle;Signal;HPM_P1;HPM_P2
2022/05/27 00:00:00;;;;;;;9.80;5.40;;;13.70;99.90;;;;;;5058106;28;20211;-42
2022/05/27 00:02:26;;;;;;;12.10;6.23;;;13.70;99.90;;;;;;5064934;28;20202;-39
2022/05/27 00:04:53;;;;;;;11.00;5.97;;;13.70;99.90;;;;;;5043254;28;20915;-39
2022/05/27 00:07:20;;;;;;;10.43;5.97;;;13.70;99.90;;;;;;5072874;28;20283;-39
2022/05/27 00:09:48;;;;;;;6.60;5.43;;;13.70;99.90;;;;;;5052555;28;20199;-40
2022/05/27 00:12:15;;;;;;;10.97;5.90;;;13.70;99.90;;;;;;5049814;28;20203;-39
2022/05/27 00:14:42;;;;;;;8.60;6.03;;;13.70;99.90;;;;;;5050527;28;20218;-39
2022/05/27 00:17:08;;;;;;;8.40;5.90;;;13.80;99.90;;;;;;5060844;28;20191;-42
2022/05/27 00:19:35;;;;;;;9.77;6.13;;;13.70;99.90;;;;;;5065302;28;20223;-39
2022/05/27 00:22:02;;;;;;;10.50;5.33;;;13.80;99.90;;;;;;5061177;28;20201;-41
2022/05/27 00:24:29;;;;;;;9.33;5.47;;;13.80;99.90;;;;;;5054051;28;20195;-39
2022/05/27 00:26:57;;;;;;;9.57;4.53;;;13.70;99.90;;;;;;5051160;28;20285;-40
2022/05/27 00:29:24;;;;;;;11.57;5.07;;;13.70;99.90;;;;;;5054082;28;20193;-41
2022/05/27 00:31:51;;;;;;;7.20;4.13;;;13.70;99.90;;;;;;5060869;28;20198;-39
2022/05/27 00:34:18;;;;;;;16.73;4.47;;;13.70;99.90;;;;;;5060169;28;20207;-40
2022/05/27 00:36:45;;;;;;;8.77;4.27;;;13.70;99.90;;;;;;5055990;28;20198;-39
2022/05/27 00:39:12;;;;;;;7.53;4.17;;;13.70;99.90;;;;;;5063285;28;20280;-39
2022/05/27 00:41:42;;;;;;;12.60;3.53;;;13.70;99.90;;;;;;5047912;28;20691;-39
2022/05/27 00:44:10;;;;;;;10.13;3.80;;;13.70;99.90;;;;;;5058602;28;20337;-40
2022/05/27 00:46:42;;;;;;;7.37;3.47;;;13.60;99.90;;;;;;5049729;28;20211;-39
2022/05/27 00:49:11;;;;;;;8.50;3.03;;;13.60;99.90;;;;;;5064869;28;20210;-39
2022/05/27 00:51:46;;;;;;;7.90;3.10;;;13.60;99.90;;;;;;5044992;28;20192;-39
2022/05/27 00:54:15;;;;;;;11.77;3.30;;;13.60;99.90;;;;;;5048934;28;20656;-40
2022/05/27 00:56:46;;;;;;;8.00;2.97;;;13.60;99.90;;;;;;5060828;28;20202;-39
2022/05/27 00:59:20;;;;;;;11.40;3.47;;;13.50;99.90;;;;;;5059513;28;20222;-39
2022/05/27 01:01:47;;;;;;;10.77;3.00;;;13.60;99.90;;;;;;5045969;28;20202;-39
2022/05/27 01:04:16;;;;;;;14.73;3.27;;;13.60;99.90;;;;;;5066776;28;20202;-39
2022/05/27 01:06:43;;;;;;;9.77;3.40;;;13.60;99.90;;;;;;5062453;28;20202;-39
2022/05/27 01:09:10;;;;;;;13.37;3.50;;;13.50;99.90;;;;;;5058332;28;20215;-39
2022/05/27 01:11:51;;;;;;;11.43;3.20;;;13.50;99.90;;;;;;5052680;28;20258;-40
2022/05/27 01:14:28;;;;;;;10.27;3.50;;;13.50;99.90;;;;;;5064915;28;20243;-39
2022/05/27 01:17:09;;;;;;;10.03;3.13;;;13.50;99.90;;;;;;5056747;28;20190;-39
2022/05/27 01:23:16;;;;;;;13.83;2.93;;;13.40;99.90;;;;;;5055992;28;20193;-39
2022/05/27 01:26:20;;;;;;;11.13;2.47;;;13.40;99.90;;;;;;5044055;28;20203;-39
2022/05/27 01:28:52;;;;;;;10.97;3.13;;;13.40;99.90;;;;;;5041118;28;20245;-39
2022/05/27 01:31:27;;;;;;;8.67;2.47;;;13.30;99.90;;;;;;5061472;28;20592;-39
2022/05/27 01:34:05;;;;;;;12.23;3.03;;;13.30;99.90;;;;;;5055273;28;20938;-41
2022/05/27 01:36:40;;;;;;;16.00;3.37;;;13.30;99.90;;;;;;5058166;28;20280;-41
2022/05/27 01:39:11;;;;;;;18.90;3.17;;;13.20;99.90;;;;;;5049955;28;21011;-39
2022/05/27 01:41:46;;;;;;;11.70;2.73;;;13.20;99.90;;;;;;5045795;28;20206;-39
2022/05/27 01:44:19;;;;;;;13.80;2.73;;;13.20;99.90;;;;;;5055664;28;20217;-39
2022/05/27 01:46:49;;;;;;;11.87;3.13;;;13.20;99.90;;;;;;5047641;28;20199;-39
2022/05/27 01:49:30;;;;;;;11.23;2.47;;;13.10;99.90;;;;;;5051992;28;20222;-40
2022/05/27 01:52:01;;;;;;;10.47;3.00;;;13.10;99.90;;;;;;5060408;28;20186;-39
2022/05/27 01:54:38;;;;;;;11.20;2.63;;;13.10;99.90;;;;;;5057814;28;20198;-40
2022/05/27 01:57:10;;;;;;;10.23;2.80;;;13.00;99.90;;;;;;5050194;28;20202;-40
2022/05/27 01:59:47;;;;;;;9.53;1.87;;;13.00;99.90;;;;;;5056529;28;20590;-43
2022/05/27 02:02:18;;;;;;;7.57;2.20;;;13.00;99.90;;;;;;5062858;28;20194;-40
2022/05/27 02:04:49;;;;;;;11.37;2.50;;;13.00;99.90;;;;;;5064440;28;20656;-44
2022/05/27 02:07:20;;;;;;;16.13;3.80;;;12.90;99.90;;;;;;5069008;28;20205;-39
2022/05/27 02:09:51;;;;;;;13.17;2.93;;;12.90;99.90;;;;;;5066227;28;20195;-40
2022/05/27 02:12:31;;;;;;;12.00;3.30;;;12.90;99.90;;;;;;5047579;28;20206;-41
2022/05/27 02:15:04;;;;;;;13.70;3.00;;;12.80;99.90;;;;;;5053962;28;20811;-39
2022/05/27 02:17:36;;;;;;;8.33;3.10;;;12.80;99.90;;;;;;5049869;28;20717;-39
2022/05/27 02:20:08;;;;;;;11.00;2.67;;;12.70;99.90;;;;;;5046325;28;20211;-42
2022/05/27 02:22:39;;;;;;;10.93;2.80;;;12.70;99.90;;;;;;5062271;28;20218;-39
2022/05/27 02:25:09;;;;;;;14.07;3.27;;;12.70;99.90;;;;;;5058544;28;20887;-39
2022/05/27 02:27:39;;;;;;;12.27;2.90;;;12.60;99.90;;;;;;5060151;28;20211;-40
2022/05/27 02:30:11;;;;;;;9.43;2.30;;;12.60;99.90;;;;;;5059135;28;20205;-39
2022/05/27 02:32:43;;;;;;;7.13;2.30;;;12.60;99.90;;;;;;5057520;28;20511;-39
2022/05/27 02:35:13;;;;;;;9.37;2.23;;;12.50;99.90;;;;;;5050511;28;20867;-39
2022/05/27 02:37:42;;;;;;;8.43;2.47;;;12.50;99.90;;;;;;5060837;28;20228;-39
2022/05/27 02:40:13;;;;;;;9.97;2.27;;;12.50;99.90;;;;;;5063459;28;20202;-39
2022/05/27 02:42:50;;;;;;;8.17;2.63;;;12.50;99.90;;;;;;5061967;28;20202;-39
2022/05/27 02:45:26;;;;;;;10.40;2.13;;;12.40;99.90;;;;;;5043456;28;20678;-39
2022/05/27 02:48:04;;;;;;;8.63;2.60;;;12.40;99.90;;;;;;5054338;28;20935;-39
2022/05/27 02:50:39;;;;;;;13.30;2.33;;;12.30;99.90;;;;;;5044018;28;20187;-39
2022/05/27 02:53:12;;;;;;;9.13;2.00;;;12.30;99.90;;;;;;5044135;28;20205;-40
2022/05/27 02:55:57;;;;;;;7.43;1.93;;;12.30;99.90;;;;;;5053664;28;20197;-40
2022/05/27 02:58:24;;;;;;;13.73;2.40;;;12.20;99.90;;;;;;5063538;28;20214;-39
2022/05/27 03:00:50;;;;;;;7.87;2.50;;;12.20;99.90;;;;;;5049926;28;20193;-39
2022/05/27 03:03:18;;;;;;;13.87;2.40;;;12.20;99.90;;;;;;5055267;28;20203;-39
2022/05/27 03:05:58;;;;;;;12.17;2.30;;;12.20;99.90;;;;;;5046920;28;20207;-39
2022/05/27 03:08:31;;;;;;;12.70;2.87;;;12.10;99.90;;;;;;5063171;28;20222;-39
2022/05/27 03:11:05;;;;;;;14.60;2.37;;;12.10;99.90;;;;;;5067980;28;20302;-41
2022/05/27 03:13:58;;;;;;;6.30;2.10;;;12.10;99.90;;;;;;5052689;28;20687;-42
2022/05/27 03:16:35;;;;;;;11.23;2.30;;;12.10;99.90;;;;;;5053683;28;20199;-39
2022/05/27 03:19:18;;;;;;;13.07;2.50;;;12.10;99.90;;;;;;5040502;28;20215;-41
2022/05/27 03:21:54;;;;;;;13.73;2.27;;;12.00;99.90;;;;;;5046771;28;20197;-39
2022/05/27 03:24:32;;;;;;;11.57;2.50;;;12.10;99.90;;;;;;5061757;28;20213;-39
2022/05/27 03:27:11;;;;;;;7.87;2.33;;;12.00;99.90;;;;;;5063810;28;20186;-40
2022/05/27 03:29:50;;;;;;;10.67;2.30;;;12.10;99.90;;;;;;5041834;28;20196;-39
2022/05/27 03:32:26;;;;;;;9.33;2.10;;;11.90;99.90;;;;;;5061149;28;20197;-39
2022/05/27 03:34:58;;;;;;;10.17;1.60;;;;;;;;;;5050534;28;20755;-39
2022/05/27 03:37:30;;;;;;;12.00;1.97;;;;;;;;;;5062909;28;20211;-39
2022/05/27 03:40:03;;;;;;;8.83;2.30;;;;;;;;;;5060322;28;20292;-39
2022/05/27 03:42:31;;;;;;;9.60;2.00;;;;;;;;;;5068754;28;20712;-39
2022/05/27 03:45:03;;;;;;;6.70;1.80;;;;;;;;;;5039855;28;20193;-40
2022/05/27 03:47:31;;;;;;;9.33;1.57;;;;;;;;;;5049584;28;20720;-40
2022/05/27 03:49:59;;;;;;;9.90;1.90;;;;;;;;;;5060192;28;20190;-42
2022/05/27 03:52:28;;;;;;;8.67;2.43;;;;;;;;;;5080344;28;20186;-41
2022/05/27 03:54:55;;;;;;;8.57;1.83;;;11.90;99.90;;;;;;5049900;28;20214;-39
2022/05/27 03:57:22;;;;;;;11.10;2.50;;;11.90;99.90;;;;;;5061752;28;20215;-39
2022/05/27 03:59:49;;;;;;;7.63;1.80;;;11.90;99.90;;;;;;5058560;28;20214;-39
2022/05/27 04:02:16;;;;;;;6.80;2.30;;;11.80;99.90;;;;;;5059123;28;20203;-41
2022/05/27 04:04:43;;;;;;;7.07;2.23;;;11.80;99.90;;;;;;5062662;28;20199;-39
2022/05/27 04:07:11;;;;;;;5.90;1.83;;;11.80;99.90;;;;;;5061018;28;20210;-39
2022/05/27 04:09:38;;;;;;;7.33;1.90;;;;;;;;;;5058474;28;20201;-39
2022/05/27 04:12:05;;;;;;;6.37;2.00;;;;;;;;;;5057386;28;20202;-39
2022/05/27 04:14:33;;;;;;;11.67;1.90;;;;;;;;;;5047908;28;20206;-40
2022/05/27 04:19:41;;;;;;;7.37;1.67;;;;;;;;;;5043666;28;20208;-39
2022/05/27 04:22:08;;;;;;;8.53;1.80;;;11.90;99.90;;;;;;5063934;28;20199;-39
2022/05/27 04:24:37;;;;;;;8.27;2.20;;;11.80;99.90;;;;;;5063309;28;20578;-39
2022/05/27 04:27:09;;;;;;;16.00;2.07;;;11.80;99.90;;;;;;5062773;28;20209;-39
2022/05/27 04:29:39;;;;;;;11.87;2.10;;;11.70;99.90;;;;;;5056766;28;20274;-39
2022/05/27 04:32:07;;;;;;;7.37;1.70;;;11.70;99.90;;;;;;5044423;28;20223;-39
2022/05/27 04:34:34;;;;;;;9.43;1.97;;;11.70;99.90;;;;;;5074946;28;20281;-39
2022/05/27 04:37:00;;;;;;;7.20;1.40;;;11.70;99.90;;;;;;5051294;28;20202;-39
2022/05/27 04:39:27;;;;;;;9.13;2.43;;;11.70;99.90;;;;;;5070362;28;20207;-41
2022/05/27 04:41:55;;;;;;;10.97;2.20;;;11.70;99.90;;;;;;5042031;28;20249;-39
2022/05/27 04:44:22;;;;;;;7.30;1.53;;;11.70;99.90;;;;;;5065635;28;20202;-40
2022/05/27 04:46:50;;;;;;;7.13;2.00;;;11.80;99.90;;;;;;5048033;28;20211;-39
2022/05/27 04:51:57;;;;;;;14.43;2.00;;;11.70;99.90;;;;;;5077516;28;20248;-39
2022/05/27 04:54:24;;;;;;;5.73;1.50;;;11.70;99.90;;;;;;5081020;28;20202;-42
2022/05/27 04:56:51;;;;;;;9.03;1.73;;;11.70;99.90;;;;;;5055453;28;20268;-39
2022/05/27 04:59:20;;;;;;;7.63;2.10;;;11.80;99.90;;;;;;5060004;28;20222;-41
2022/05/27 05:01:46;;;;;;;10.40;2.03;;;11.80;99.90;;;;;;5057117;28;20203;-39
2022/05/27 05:04:13;;;;;;;8.87;1.63;;;11.80;99.90;;;;;;5068845;28;20202;-39
2022/05/27 05:06:40;;;;;;;6.83;1.63;;;11.80;99.90;;;;;;5059557;28;20211;-46
2022/05/27 05:09:07;;;;;;;7.57;2.10;;;11.80;99.90;;;;;;5051872;28;20354;-41
2022/05/27 05:11:34;;;;;;;5.27;1.87;;;11.80;99.90;;;;;;5046340;28;20203;-45
2022/05/27 05:14:01;;;;;;;7.13;1.90;;;11.80;99.90;;;;;;5038095;28;21876;-40
2022/05/27 05:16:30;;;;;;;9.83;1.80;;;11.90;99.90;;;;;;5056437;28;20643;-44
2022/05/27 05:18:57;;;;;;;7.27;1.40;;;11.90;99.90;;;;;;5043352;28;20211;-40
2022/05/27 05:21:24;;;;;;;8.60;1.30;;;11.90;99.90;;;;;;5049565;28;20226;-41
2022/05/27 05:23:51;;;;;;;3.40;1.17;;;11.90;99.90;;;;;;5043165;28;20269;-41
2022/05/27 05:26:18;;;;;;;3.67;1.30;;;12.00;99.90;;;;;;5045676;28;20210;-42
2022/05/27 05:28:44;;;;;;;7.93;2.00;;;12.00;99.90;;;;;;5042462;28;20227;-42
2022/05/27 05:31:16;;;;;;;4.80;1.93;;;12.00;99.90;;;;;;5043350;28;20203;-41
2022/05/27 05:33:45;;;;;;;3.83;1.30;;;12.10;99.90;;;;;;5048013;28;20214;-42
2022/05/27 05:36:12;;;;;;;6.27;1.40;;;12.10;99.90;;;;;;5051105;28;20195;-41
2022/05/27 05:38:39;;;;;;;5.47;1.60;;;12.10;99.90;;;;;;5045819;28;20283;-42
2022/05/27 05:41:06;;;;;;;7.30;1.50;;;12.10;99.90;;;;;;5050435;28;20208;-43
2022/05/27 05:43:33;;;;;;;7.07;1.60;;;12.20;99.90;;;;;;5057008;28;20588;-41
2022/05/27 05:46:00;;;;;;;9.93;1.67;;;12.20;99.90;;;;;;5044105;28;20963;-41
2022/05/27 05:48:26;;;;;;;8.40;2.00;;;12.30;99.90;;;;;;5059274;28;20219;-41
2022/05/27 05:50:55;;;;;;;12.87;2.10;;;12.30;99.90;;;;;;5047961;28;20922;-42
2022/05/27 05:53:21;;;;;;;6.90;1.70;;;12.40;99.90;;;;;;5044489;28;20250;-41
2022/05/27 05:55:48;;;;;;;7.83;1.70;;;12.40;99.90;;;;;;5046819;28;20195;-42
2022/05/27 05:58:15;;;;;;;6.57;1.47;;;12.40;99.90;;;;;;5061935;28;20215;-41
2022/05/27 06:00:42;;;;;;;7.07;1.30;;;12.50;99.90;;;;;;5044632;28;20846;-41
2022/05/27 06:03:10;;;;;;;6.83;1.70;;;12.50;99.90;;;;;;5053118;28;20187;-41
2022/05/27 06:05:40;;;;;;;8.60;2.17;;;12.50;99.90;;;;;;5051396;28;20213;-43
2022/05/27 06:08:09;;;;;;;6.43;2.13;;;12.60;99.90;;;;;;5048292;28;20233;-41
2022/05/27 06:10:36;;;;;;;8.83;1.47;;;12.60;99.90;;;;;;5039399;28;20712;-42
2022/05/27 06:13:03;;;;;;;5.87;1.87;;;12.70;99.90;;;;;;5037900;28;20203;-43
2022/05/27 06:15:30;;;;;;;9.40;1.63;;;12.70;99.90;;;;;;5029502;28;23367;-45
2022/05/27 06:17:59;;;;;;;7.10;1.70;;;12.80;99.90;;;;;;5048081;28;20215;-44
2022/05/27 06:20:26;;;;;;;8.10;1.80;;;12.80;99.90;;;;;;5059043;28;20210;-41
2022/05/27 06:22:53;;;;;;;6.47;1.40;;;12.80;99.90;;;;;;5063797;28;20198;-40
2022/05/27 06:25:21;;;;;;;8.87;1.80;;;12.90;99.90;;;;;;5059719;28;20663;-41
2022/05/27 06:27:48;;;;;;;7.50;1.93;;;12.90;99.90;;;;;;5063460;28;20218;-41
2022/05/27 06:35:45;;;;;;;9.50;2.13;;;13.00;99.90;;;;;;5051107;28;20205;-41
2022/05/27 06:38:12;;;;;;;9.13;2.20;;;13.20;99.90;;;;;;5050811;28;20310;-41
2022/05/27 06:40:40;;;;;;;9.33;1.47;;;13.10;99.90;;;;;;5044614;28;20971;-42
2022/05/27 06:43:07;;;;;;;7.43;2.00;;;13.20;99.90;;;;;;5042864;28;20210;-45
2022/05/27 06:45:34;;;;;;;7.17;1.77;;;13.20;99.90;;;;;;5040668;28;20192;-41
2022/05/27 06:48:01;;;;;;;8.87;1.90;;;13.30;99.90;;;;;;5039056;28;20229;-42
2022/05/27 06:50:33;;;;;;;9.13;1.93;;;13.30;99.90;;;;;;5042338;28;20202;-44
2022/05/27 06:52:59;;;;;;;7.77;1.80;;;13.20;99.90;;;;;;5050332;28;20290;-41
2022/05/27 06:55:27;;;;;;;5.73;1.33;;;13.20;99.90;;;;;;5042232;28;20214;-41
2022/05/27 06:57:55;;;;;;;10.70;1.97;;;13.20;99.90;;;;;;5041504;28;20216;-44
2022/05/27 07:00:22;;;;;;;6.07;1.73;;;13.20;99.90;;;;;;5042003;28;20218;-41
2022/05/27 07:02:49;;;;;;;4.70;1.77;;;13.30;99.90;;;;;;5037694;28;20261;-41
2022/05/27 07:05:16;;;;;;;7.77;2.37;;;13.40;99.90;;;;;;5045839;28;20191;-41
2022/05/27 07:07:42;;;;;;;6.13;1.50;;;13.40;99.90;;;;;;5053575;28;20265;-41
2022/05/27 07:10:09;;;;;;;8.57;2.10;;;13.40;99.90;;;;;;5046006;28;20190;-42
2022/05/27 07:12:37;;;;;;;8.07;1.77;;;13.40;99.90;;;;;;5043666;28;20223;-45
2022/05/27 07:15:06;;;;;;;9.73;1.90;;;13.50;99.90;;;;;;5039928;28;20206;-41
2022/05/27 07:17:33;;;;;;;7.33;1.50;;;13.40;99.90;;;;;;5042093;28;20226;-42
2022/05/27 07:19:59;;;;;;;8.63;1.63;;;13.40;99.90;;;;;;5054072;28;20627;-42
2022/05/27 07:22:27;;;;;;;7.80;2.50;;;13.40;99.90;;;;;;5044223;28;20194;-45
2022/05/27 07:24:53;;;;;;;4.57;1.23;;;13.50;99.90;;;;;;5042114;28;20199;-41
2022/05/27 07:27:20;;;;;;;7.67;2.00;;;13.50;99.90;;;;;;5041453;28;20200;-42
2022/05/27 07:29:47;;;;;;;13.30;2.20;;;13.60;99.90;;;;;;5043452;28;20206;-43
2022/05/27 07:32:15;;;;;;;6.53;1.80;;;13.70;99.90;;;;;;5030903;28;20450;-41
2022/05/27 07:34:45;;;;;;;8.50;1.80;;;13.70;99.90;;;;;;5046768;28;20608;-41
2022/05/27 07:37:12;;;;;;;9.17;2.23;;;13.70;99.90;;;;;;5052835;28;20286;-41
2022/05/27 07:39:39;;;;;;;9.37;2.00;;;13.80;99.90;;;;;;5047708;28;20203;-41
2022/05/27 07:42:06;;;;;;;9.77;2.33;;;13.90;99.90;;;;;;5039404;28;20222;-41
2022/05/27 07:44:33;;;;;;;11.03;1.83;;;13.90;99.90;;;;;;5043146;28;20195;-41
2022/05/27 07:47:00;;;;;;;9.50;1.80;;;14.00;99.90;;;;;;5040759;28;20207;-41
2022/05/27 07:49:28;;;;;;;7.00;1.80;;;14.20;99.90;;;;;;5036326;28;20226;-41
2022/05/27 07:51:55;;;;;;;7.23;1.80;;;14.20;99.90;;;;;;5050287;28;20206;-41
2022/05/27 07:54:22;;;;;;;7.10;2.00;;;14.20;99.90;;;;;;5044967;28;20207;-41
2022/05/27 07:56:49;;;;;;;3.83;1.33;;;14.20;99.90;;;;;;5047068;28;20227;-42
2022/05/27 07:59:16;;;;;;;4.97;1.90;;;14.20;99.90;;;;;;5044139;28;20894;-43
2022/05/27 08:01:43;;;;;;;6.13;1.67;;;14.40;99.90;;;;;;5047239;28;20703;-46
2022/05/27 08:04:11;;;;;;;6.87;1.77;;;14.40;99.90;;;;;;5034135;28;20195;-41
2022/05/27 08:06:40;;;;;;;6.17;1.70;;;14.50;99.90;;;;;;5058224;28;20257;-41
2022/05/27 08:09:07;;;;;;;8.20;1.20;;;14.50;99.90;;;;;;5052905;28;20912;-41
2022/05/27 08:11:34;;;;;;;6.53;1.60;;;14.40;99.90;;;;;;5047134;28;20199;-45
2022/05/27 08:14:02;;;;;;;5.17;1.47;;;14.40;99.90;;;;;;5043913;28;20656;-41
2022/05/27 08:16:32;;;;;;;6.27;1.73;;;14.30;99.90;;;;;;5046072;28;20214;-42
2022/05/27 08:19:00;;;;;;;4.40;1.30;;;14.10;99.50;;;;;;5038180;28;20225;-43
2022/05/27 08:21:27;;;;;;;7.17;1.20;;;13.90;99.90;;;;;;5061474;28;20222;-41
2022/05/27 08:23:55;;;;;;;4.33;1.20;;;13.50;99.90;;;;;;5050862;28;20195;-40
2022/05/27 08:26:22;;;;;;;2.87;1.37;;;13.20;99.90;;;;;;5050048;28;20206;-41
2022/05/27 08:28:49;;;;;;;4.10;1.33;;;12.90;99.90;;;;;;5047183;28;20265;-43
2022/05/27 08:31:16;;;;;;;5.17;1.93;;;12.90;99.90;;;;;;5045006;28;20602;-41
2022/05/27 08:39:14;;;;;;;5.73;1.40;;;13.10;99.90;;;;;;5055968;28;20214;-41
2022/05/27 08:41:55;;;;;;;6.10;1.93;;;13.20;99.90;;;;;;5062549;28;20211;-42
2022/05/27 08:44:34;;;;;;;4.57;1.53;;;13.40;99.90;;;;;;5062842;28;20198;-41
2022/05/27 08:47:08;;;;;;;7.37;2.10;;;13.50;99.90;;;;;;5065696;28;20225;-43
2022/05/27 08:49:38;;;;;;;7.47;1.53;;;13.70;99.90;;;;;;5061651;28;20454;-41
2022/05/27 08:52:10;;;;;;;9.07;1.53;;;13.80;99.90;;;;;;5042019;28;20204;-43
2022/05/27 08:55:03;;;;;;;9.03;2.47;;;14.00;99.90;;;;;;5051634;28;20198;-41
2022/05/27 09:00:21;;;;;;;10.03;2.20;;;14.10;99.90;;;;;;5047681;28;21248;-41
2022/05/27 09:02:56;;;;;;;4.50;1.53;;;14.20;99.90;;;;;;5054379;28;20195;-44
2022/05/27 09:05:28;;;;;;;8.03;1.60;;;14.40;99.90;;;;;;5044917;28;20194;-41
2022/05/27 09:07:59;;;;;;;6.63;1.60;;;14.70;99.90;;;;;;5049035;28;20219;-42
2022/05/27 09:10:37;;;;;;;7.87;1.97;;;15.00;99.60;;;;;;5047566;28;20191;-41
2022/05/27 09:13:18;;;;;;;7.07;1.33;;;15.10;97.10;;;;;;5042373;28;20203;-41
2022/05/27 09:15:52;;;;;;;6.20;1.83;;;15.00;96.50;;;;;;5045903;28;20206;-41
2022/05/27 09:18:33;;;;;;;5.73;1.63;;;15.10;96.50;;;;;;5042952;28;20219;-44
2022/05/27 09:21:10;;;;;;;7.97;1.97;;;15.20;95.50;;;;;;5042962;28;20222;-41
2022/05/27 09:24:02;;;;;;;5.27;1.80;;;15.20;96.00;;;;;;5037873;28;20207;-46
2022/05/27 09:26:39;;;;;;;6.63;1.80;;;15.30;95.60;;;;;;5038696;28;20203;-44
2022/05/27 09:29:17;;;;;;;6.57;1.73;;;15.00;94.90;;;;;;5050307;28;20214;-41
2022/05/27 09:31:49;;;;;;;8.57;1.53;;;14.80;94.30;;;;;;5052808;28;20206;-41
2022/05/27 09:34:17;;;;;;;7.90;2.20;;;14.80;94.30;;;;;;5058112;28;20198;-44
2022/05/27 09:36:49;;;;;;;4.10;1.90;;;14.80;94.80;;;;;;5056978;28;20198;-41
2022/05/27 09:39:22;;;;;;;6.60;1.80;;;14.80;94.60;;;;;;5040069;28;20293;-41
2022/05/27 09:41:56;;;;;;;11.10;2.47;;;14.70;94.70;;;;;;5047699;28;20227;-45
2022/05/27 09:44:31;;;;;;;7.57;1.83;;;14.70;95.00;;;;;;5050161;28;20191;-41
2022/05/27 09:46:58;;;;;;;7.03;2.23;;;14.80;95.70;;;;;;5045612;28;20198;-41
2022/05/27 09:49:25;;;;;;;6.57;1.63;;;14.90;96.20;;;;;;5049875;28;20218;-41
2022/05/27 09:51:52;;;;;;;7.40;1.60;;;14.70;96.10;;;;;;5060051;28;20209;-42
2022/05/27 09:54:30;;;;;;;6.57;1.60;;;14.40;98.30;;;;;;5035916;28;20852;-42
2022/05/27 09:57:02;;;;;;;3.10;1.23;;;13.90;99.90;;;;;;5053824;28;20221;-42
2022/05/27 09:59:36;;;;;;;7.93;1.60;;;13.40;99.90;;;;;;5046721;28;20195;-42
2022/05/27 10:02:22;;;;;;;6.90;1.97;;;13.00;99.90;;;;;;5045687;28;20227;-42
2022/05/27 10:04:51;;;;;;;10.87;2.57;;;12.80;99.90;;;;;;5048622;28;20213;-41
2022/05/27 10:07:25;;;;;;;12.67;1.80;;;12.90;99.90;;;;;;5049910;28;20199;-43
2022/05/27 10:09:52;;;;;;;11.97;2.27;;;;;;;;;;5052617;28;20209;-45
2022/05/27 10:12:30;;;;;;;7.17;2.00;;;13.30;99.90;;;;;;5047048;28;20204;-43
2022/05/27 10:14:57;;;;;;;11.33;2.33;;;13.60;99.90;;;;;;5053189;28;20197;-44
2022/05/27 10:17:31;;;;;;;6.83;1.90;;;13.80;99.90;;;;;;5040260;28;21051;-41
2022/05/27 10:20:17;;;;;;;4.47;1.60;;;13.80;99.90;;;;;;5047049;28;20198;-41
2022/05/27 10:22:58;;;;;;;6.93;2.03;;;13.70;99.90;;;;;;5040321;28;20281;-44
2022/05/27 10:25:34;;;;;;;4.20;1.50;;;13.50;99.90;;;;;;5047399;28;20207;-43
2022/05/27 10:28:04;;;;;;;6.77;2.00;;;13.20;99.90;;;;;;5045576;28;20222;-41
2022/05/27 10:30:33;;;;;;;8.63;1.83;;;13.10;99.90;;;;;;5043640;28;20969;-42
2022/05/27 10:33:16;;;;;;;12.40;1.83;;;13.20;99.90;;;;;;5041952;28;20291;-41
2022/05/27 10:35:43;;;;;;;6.70;2.10;;;13.40;99.90;;;;;;5049418;28;20210;-41
2022/05/27 10:38:32;;;;;;;7.20;1.80;;;13.70;99.90;;;;;;5050766;28;20218;-42
2022/05/27 10:41:04;;;;;;;5.60;2.03;;;13.70;99.90;;;;;;5044784;28;20210;-43
2022/05/27 10:44:13;;;;;;;9.77;1.90;;;13.80;99.90;;;;;;5049654;28;20206;-41
2022/05/27 10:46:45;;;;;;;7.43;1.80;;;13.80;99.90;;;;;;5055816;28;20206;-43
2022/05/27 10:49:38;;;;;;;5.53;2.13;;;13.80;99.90;;;;;;5043810;28;20222;-46
2022/05/27 10:52:18;;;;;;;7.03;1.73;;;13.80;99.90;;;;;;5049336;28;20688;-42
2022/05/27 10:54:54;;;;;;;8.90;1.60;;;13.50;99.90;;;;;;5051409;28;20233;-42
2022/05/27 11:03:45;;;;;;;8.37;2.47;;;13.10;99.90;;;;;;5035705;28;20229;-41
2022/05/27 11:06:25;;;;;;;11.83;3.00;;;13.10;99.90;;;;;;5047360;28;20207;-41
2022/05/27 11:09:07;;;;;;;8.80;2.07;;;13.30;99.90;;;;;;5050638;28;20245;-43
2022/05/27 11:11:41;;;;;;;8.60;2.17;;;13.50;99.90;;;;;;5035691;28;20207;-42
2022/05/27 11:17:14;;;;;;;13.93;2.93;;;13.90;99.90;;;;;;5048683;28;20194;-43
2022/05/27 11:20:05;;;;;;;7.83;2.40;;;14.00;99.90;;;;;;5043379;28;20209;-41
2022/05/27 11:22:37;;;;;;;8.57;2.00;;;13.80;99.90;;;;;;5052104;28;20330;-43
2022/05/27 11:25:26;;;;;;;6.10;1.77;;;13.40;99.90;;;;;;5029181;28;20203;-41
2022/05/27 11:28:22;;;;;;;3.87;1.30;;;12.80;99.90;;;;;;5048037;28;20711;-42
2022/05/27 11:31:00;;;;;;;7.00;1.67;;;12.30;99.90;;;;;;5048938;28;20201;-44
2022/05/27 11:33:44;;;;;;;11.27;1.40;;;12.20;99.90;;;;;;5039233;28;20210;-41
2022/05/27 11:36:40;;;;;;;7.07;1.77;;;12.10;99.90;;;;;;5044308;28;20255;-43
2022/05/27 11:39:43;;;;;;;10.40;2.13;;;12.10;99.90;;;;;;5044974;28;20871;-42
2022/05/27 11:42:20;;;;;;;13.33;2.80;;;12.30;99.90;;;;;;5031986;28;20273;-46
2022/05/27 11:44:54;;;;;;;6.47;1.93;;;12.40;99.90;;;;;;5046968;28;20194;-41
2022/05/27 11:47:36;;;;;;;9.70;2.50;;;12.70;99.90;;;;;;5038429;28;20202;-40
2022/05/27 11:50:15;;;;;;;8.47;2.10;;;13.00;99.90;;;;;;5045162;28;20203;-41
2022/05/27 11:53:04;;;;;;;13.07;2.70;;;13.20;99.90;;;;;;5048656;28;20198;-45
2022/05/27 11:56:03;;;;;;;12.83;2.80;;;13.50;99.90;;;;;;5046503;28;20207;-41
2022/05/27 11:58:39;;;;;;;13.57;2.47;;;13.60;99.90;;;;;;5052096;28;20239;-41
2022/05/27 12:01:11;;;;;;;10.60;2.30;;;13.90;99.90;;;;;;5045804;28;20220;-41
2022/05/27 12:03:42;;;;;;;12.87;2.93;;;14.10;99.90;;;;;;5049787;28;20194;-43
2022/05/27 12:06:15;;;;;;;7.73;1.60;;;14.20;99.90;;;;;;5035237;28;20206;-41
2022/05/27 12:08:47;;;;;;;11.37;2.73;;;14.00;99.90;;;;;;5056815;28;20218;-41
2022/05/27 12:11:21;;;;;;;8.00;2.30;;;13.90;99.90;;;;;;5050622;28;20213;-41
2022/05/27 12:13:53;;;;;;;5.50;1.60;;;14.10;99.90;;;;;;5044107;28;20212;-45
2022/05/27 12:16:24;;;;;;;8.87;2.30;;;14.30;99.90;;;;;;5046459;28;20195;-41
2022/05/27 12:18:56;;;;;;;6.40;1.90;;;14.40;99.90;;;;;;5052196;28;20219;-44
2022/05/27 12:21:29;;;;;;;6.90;1.93;;;14.40;99.90;;;;;;5041051;28;20473;-45
2022/05/27 12:23:59;;;;;;;7.10;1.43;;;14.40;99.90;;;;;;5044989;28;20553;-41
2022/05/27 12:26:30;;;;;;;5.70;1.70;;;14.30;99.90;;;;;;5052631;28;20294;-45
2022/05/27 12:28:59;;;;;;;7.03;1.43;;;14.30;99.90;;;;;;5033113;28;20302;-41
2022/05/27 12:31:27;;;;;;;6.07;1.50;;;14.30;99.90;;;;;;5045255;28;20212;-41
2022/05/27 12:33:54;;;;;;;4.83;1.20;;;14.40;99.90;;;;;;5048124;28;20194;-42
2022/05/27 12:36:26;;;;;;;6.50;2.33;;;14.50;99.90;;;;;;5042335;28;20279;-41
2022/05/27 12:38:57;;;;;;;8.70;1.67;;;14.50;99.90;;;;;;5047264;28;20272;-43
2022/05/27 12:41:35;;;;;;;3.37;1.30;;;14.70;99.90;;;;;;5052693;28;20203;-42
2022/05/27 12:44:04;;;;;;;3.47;1.63;;;14.90;99.90;;;;;;5044612;28;20235;-44
2022/05/27 12:46:33;;;;;;;9.40;2.07;;;15.10;99.90;;;;;;5050452;28;20202;-44
2022/05/27 12:49:26;;;;;;;5.67;1.50;;;15.50;99.90;;;;;;5047835;28;21103;-41
2022/05/27 12:51:55;;;;;;;7.83;1.93;;;15.90;99.50;;;;;;5050479;28;20260;-43
2022/05/27 12:54:59;;;;;;;6.70;1.97;;;16.10;99.00;;;;;;5046718;28;20202;-44
2022/05/27 13:00:57;;;;;;;7.40;2.07;;;15.60;98.30;;;;;;5037482;28;20961;-43
2022/05/27 13:03:51;;;;;;;7.73;2.03;;;15.50;97.20;;;;;;5039573;28;21155;-41
2022/05/27 13:06:35;;;;;;;9.67;2.00;;;15.30;96.20;;;;;;5045820;28;20269;-41
2022/05/27 13:09:07;;;;;;;6.37;2.17;;;15.30;96.70;;;;;;5042788;28;20299;-41
2022/05/27 13:11:44;;;;;;;8.17;1.57;;;15.30;97.80;;;;;;5049721;28;20230;-42
2022/05/27 13:14:18;;;;;;;7.43;2.10;;;15.50;97.70;;;;;;5032093;28;20210;-41
2022/05/27 13:16:50;;;;;;;10.87;2.50;;;15.50;98.60;;;;;;5051289;28;20752;-43
2022/05/27 13:19:30;;;;;;;8.70;1.77;;;15.30;99.00;;;;;;5044825;28;20394;-41
2022/05/27 13:22:00;;;;;;;13.07;2.47;;;15.40;99.60;;;;;;5050139;28;20242;-45
2022/05/27 13:24:34;;;;;;;8.93;2.27;;;15.60;99.90;;;;;;5047700;28;20257;-41
2022/05/27 13:27:09;;;;;;;5.97;1.37;;;15.80;99.70;;;;;;5048639;28;20199;-43
2022/05/27 13:29:45;;;;;;;8.50;1.90;;;15.90;98.50;;;;;;5051663;28;20207;-41
2022/05/27 13:32:20;;;;;;;9.97;1.83;;;15.60;97.30;;;;;;5042270;28;20201;-41
2022/05/27 13:34:53;;;;;;;7.00;1.80;;;15.00;99.90;;;;;;5060470;28;20210;-42
2022/05/27 13:37:29;;;;;;;3.77;1.63;;;14.10;99.90;;;;;;5052419;28;20214;-42
2022/05/27 13:40:03;;;;;;;5.23;1.80;;;13.90;99.90;;;;;;5044072;28;20207;-42
2022/05/27 13:42:32;;;;;;;9.33;2.30;;;14.20;99.90;;;;;;5050427;28;20214;-41
2022/05/27 13:45:08;;;;;;;8.10;1.87;;;14.50;99.90;;;;;;5039313;28;20196;-41
2022/05/27 13:47:43;;;;;;;9.93;2.57;;;14.50;99.90;;;;;;5050740;28;20218;-42